Time;durP1;ratioP1;P1;durP2;ratioP2;P2;SDS_P1;SDS_P2;PMS_P1;PMS_P2;Temp;Humidity;BMP_temperature;BMP_pressure;BME280_temperature;BME280_humidity;BME280_pressure;Samples;Min_cycle;Max_cycle;Signal;HPM_P1;HPM_P2
2023/08/05 00:00:44;;;;;;;;;;;;;;;25.47;62.47;96356.80;600331;236;64418;-66
2023/08/05 00:03:11;;;;;;;;;;;;;;;25.47;62.45;96354.89;600338;236;62573;-66
2023/08/05 00:05:39;;;;;;;;;;;;;;;25.49;62.46;96349.20;600344;236;66822;-67
2023/08/05 00:08:06;;;;;;;;;;;;;;;25.47;62.54;96357.58;596561;236;64384;-67
2023/08/05 00:10:34;;;;;;;;;;;;;;;25.47;62.60;96354.89;591458;240;62705;-67
2023/08/05 00:13:02;;;;;;;;;;;;;;;25.47;62.64;96354.89;591391;240;64522;-67
2023/08/05 00:15:29;;;;;;;;;;;;;;;25.48;62.63;96350.30;591445;240;64105;-67
2023/08/05 00:17:57;;;;;;;;;;;;;;;25.47;62.70;96352.20;591418;240;62600;-63
2023/08/05 00:20:24;;;;;;;;;;;;;;;25.46;62.69;96339.87;591412;240;64595;-63
2023/08/05 00:22:51;;;;;;;;;;;;;;;25.46;62.73;96342.56;591463;240;66370;-64
2023/08/05 00:25:19;;;;;;;;;;;;;;;25.47;62.84;96337.97;591385;240;64649;-64
2023/08/05 00:27:46;;;;;;;;;;;;;;;25.47;62.75;96337.97;591432;240;66731;-64
2023/08/05 00:30:14;;;;;;;;;;;;;;;25.47;62.80;96337.97;591444;240;63953;-63
2023/08/05 00:32:41;;;;;;;;;;;;;;;25.46;62.92;96331.80;591430;240;63510;-64
2023/08/05 00:35:09;;;;;;;;;;;;;;;25.47;62.87;96324.52;591503;240;66545;-63
2023/08/05 00:37:37;;;;;;;;;;;;;;;25.46;62.96;96320.25;591401;240;64756;-64
2023/08/05 00:40:05;;;;;;;;;;;;;;;25.45;62.92;96319.47;591386;240;62908;-64
2023/08/05 00:42:33;;;;;;;;;;;;;;;25.45;62.94;96319.47;591468;240;64456;-64
2023/08/05 00:45:01;;;;;;;;;;;;;;;25.45;63.13;96316.78;591312;240;66526;-64
2023/08/05 00:47:30;;;;;;;;;;;;;;;25.45;63.15;96308.70;591377;240;63491;-64
2023/08/05 00:50:01;;;;;;;;;;;;;;;25.45;63.11;96308.70;591482;240;64399;-64
2023/08/05 00:52:29;;;;;;;;;;;;;;;25.44;63.15;96309.80;591443;240;66589;-64
2023/08/05 00:54:56;;;;;;;;;;;;;;;25.45;63.20;96302.52;591482;240;63431;-64
2023/08/05 00:57:24;;;;;;;;;;;;;;;25.45;63.22;96305.20;591474;240;66160;-64
2023/08/05 00:59:51;;;;;;;;;;;;;;;25.44;63.12;96288.27;591474;240;64010;-64
2023/08/05 01:02:19;;;;;;;;;;;;;;;25.45;63.12;96294.44;591452;240;62646;-64
2023/08/05 01:04:46;;;;;;;;;;;;;;;25.45;63.21;96292.57;591435;240;64461;-64
2023/08/05 01:07:16;;;;;;;;;;;;;;;25.44;63.22;96274.83;591961;236;66792;-64
2023/08/05 01:09:43;;;;;;;;;;;;;;;25.44;63.19;96290.97;600360;236;64747;-64
2023/08/05 01:12:11;;;;;;;;;;;;;;;25.45;63.22;96281.81;600398;236;67518;-64
2023/08/05 01:14:38;;;;;;;;;;;;;;;25.45;63.29;96276.42;600363;236;66517;-64
2023/08/05 01:17:07;;;;;;;;;;;;;;;25.45;63.28;96276.42;600352;236;64805;-64
2023/08/05 01:19:35;;;;;;;;;;;;;;;25.44;63.32;96272.14;600327;236;66753;-65
2023/08/05 01:22:13;;;;;;;;;;;;;;;25.44;63.30;96269.45;600362;236;64441;-64
2023/08/05 01:24:45;;;;;;;;;;;;;;;25.44;63.28;96266.76;600210;236;62555;-64
2023/08/05 01:27:13;;;;;;;;;;;;;;;25.43;63.31;96265.19;600324;236;66538;-64
2023/08/05 01:29:40;;;;;;;;;;;;;;;25.45;63.30;96270.23;600374;236;66645;-64
2023/08/05 01:32:08;;;;;;;;;;;;;;;25.44;63.29;96261.38;600321;236;64772;-64
2023/08/05 01:34:37;;;;;;;;;;;;;;;25.44;63.39;96261.38;600343;236;65150;-64
2023/08/05 01:37:04;;;;;;;;;;;;;;;25.43;63.42;96259.81;600343;236;64095;-64
2023/08/05 01:39:32;;;;;;;;;;;;;;;25.43;63.47;96257.12;600391;236;63327;-64
2023/08/05 01:42:00;;;;;;;;;;;;;;;25.43;63.45;96253.64;600377;236;65080;-64
2023/08/05 01:44:27;;;;;;;;;;;;;;;25.43;63.43;96253.64;600316;236;64001;-64
2023/08/05 01:46:55;;;;;;;;;;;;;;;25.44;63.48;96257.91;600335;236;64762;-64
2023/08/05 01:49:22;;;;;;;;;;;;;;;25.42;63.42;96250.14;600362;236;67435;-64
2023/08/05 01:51:50;;;;;;;;;;;;;;;25.43;63.40;96249.05;600348;236;66855;-67
2023/08/05 01:54:17;;;;;;;;;;;;;;;25.42;63.50;96250.14;600345;236;62483;-68
2023/08/05 01:56:46;;;;;;;;;;;;;;;25.42;63.57;96250.14;600359;236;64082;-67
2023/08/05 01:59:13;;;;;;;;;;;;;;;25.42;63.56;96258.20;600327;236;66527;-68
2023/08/05 02:01:45;;;;;;;;;;;;;;;25.42;63.53;96252.83;600355;236;64854;-68
2023/08/05 02:04:12;;;;;;;;;;;;;;;25.42;63.42;96250.14;600395;236;67670;-68
2023/08/05 02:06:41;;;;;;;;;;;;;;;25.43;63.42;96256.33;600339;236;66159;-68
2023/08/05 02:09:08;;;;;;;;;;;;;;;25.42;63.43;96250.14;592798;236;64603;-67
2023/08/05 02:11:36;;;;;;;;;;;;;;;25.43;63.37;96245.57;591437;240;63740;-68
2023/08/05 02:14:03;;;;;;;;;;;;;;;25.42;63.35;96244.76;591455;240;66158;-67
2023/08/05 02:16:32;;;;;;;;;;;;;;;25.42;63.41;96244.76;591481;238;64679;-68
2023/08/05 02:19:00;;;;;;;;;;;;;;;25.43;63.42;96242.88;591452;240;66596;-68
2023/08/05 02:21:27;;;;;;;;;;;;;;;25.42;63.43;96239.38;591443;240;66162;-68
2023/08/05 02:23:55;;;;;;;;;;;;;;;25.41;63.43;96232.43;591433;240;62487;-68
2023/08/05 02:26:22;;;;;;;;;;;;;;;25.42;63.45;96239.38;591459;240;66378;-68
2023/08/05 02:28:50;;;;;;;;;;;;;;;25.42;63.43;96234.00;591515;240;66292;-68
2023/08/05 02:31:17;;;;;;;;;;;;;;;25.40;63.41;96233.55;591489;240;64715;-68
2023/08/05 02:33:45;;;;;;;;;;;;;;;25.42;63.47;96235.91;591465;240;66546;-68
2023/08/05 02:36:12;;;;;;;;;;;;;;;25.41;63.39;96232.43;591428;240;66631;-68
2023/08/05 02:38:40;;;;;;;;;;;;;;;25.41;63.47;96232.43;591397;240;65882;-68
2023/08/05 02:41:08;;;;;;;;;;;;;;;25.41;63.49;96232.43;591434;240;64040;-68
2023/08/05 02:43:36;;;;;;;;;;;;;;;25.40;63.42;96230.86;591477;240;66648;-68
2023/08/05 02:46:03;;;;;;;;;;;;;;;25.40;63.44;96238.92;591446;240;64594;-68
2023/08/05 02:48:31;;;;;;;;;;;;;;;25.41;63.47;96245.09;591421;240;66616;-68
2023/08/05 02:50:59;;;;;;;;;;;;;;;25.41;63.47;96239.72;591412;240;66372;-68
2023/08/05 02:53:28;;;;;;;;;;;;;;;25.40;63.40;96238.92;591440;240;65492;-68
2023/08/05 02:55:55;;;;;;;;;;;;;;;25.40;63.36;96235.42;591499;240;66870;-68
2023/08/05 02:58:23;;;;;;;;;;;;;;;25.40;63.39;96236.23;591450;240;66301;-68
2023/08/05 03:00:50;;;;;;;;;;;;;;;25.40;63.34;96227.35;591422;240;64644;-68
2023/08/05 03:03:18;;;;;;;;;;;;;;;25.40;63.36;96224.66;591444;240;66564;-68
2023/08/05 03:05:45;;;;;;;;;;;;;;;25.41;63.41;96227.05;591352;240;64404;-68
2023/08/05 03:08:13;;;;;;;;;;;;;;;25.40;63.43;96220.09;595629;236;65569;-67
2023/08/05 03:10:42;;;;;;;;;;;;;;;25.39;63.62;96223.88;600339;236;66640;-68
2023/08/05 03:13:09;;;;;;;;;;;;;;;25.39;63.82;96223.88;600312;236;64186;-68
2023/08/05 03:15:37;;;;;;;;;;;;;;;25.39;63.78;96223.88;600343;236;65312;-68
2023/08/05 03:18:06;;;;;;;;;;;;;;;25.40;64.46;96224.66;600117;236;45474;-68
2023/08/05 03:20:34;;;;;;;;;;;;;;;25.38;64.25;96211.55;600337;236;67694;-68
2023/08/05 03:23:04;;;;;;;;;;;;;;;25.38;64.23;96216.93;599898;236;44732;-68
2023/08/05 03:25:33;;;;;;;;;;;;;;;25.39;64.08;96210.43;600277;236;67312;-68
2023/08/05 03:28:02;;;;;;;;;;;;;;;25.38;64.19;96210.77;600327;236;44520;-68
2023/08/05 03:30:30;;;;;;;;;;;;;;;25.39;63.44;96207.74;600274;236;62151;-68
2023/08/05 03:32:58;;;;;;;;;;;;;;;25.38;63.26;96206.17;600290;236;67851;-68
2023/08/05 03:35:26;;;;;;;;;;;;;;;25.40;63.58;96205.84;600366;236;67445;-68
2023/08/05 03:37:54;;;;;;;;;;;;;;;25.39;63.44;96212.34;600291;236;65130;-70
2023/08/05 03:40:22;;;;;;;;;;;;;;;25.39;63.97;96212.34;600320;236;66931;-70
2023/08/05 03:42:50;;;;;;;;;;;;;;;25.38;63.69;96206.17;600297;236;67197;-67
2023/08/05 03:45:18;;;;;;;;;;;;;;;25.38;63.57;96206.17;600277;236;65386;-67
2023/08/05 03:47:49;;;;;;;;;;;;;;;25.38;64.42;96208.86;600386;236;64573;-67
2023/08/05 03:50:15;;;;;;;;;;;;;;;25.38;66.95;96203.48;600219;236;65488;-67
2023/08/05 03:52:42;;;;;;;;;;;;;;;25.38;67.58;96206.17;600308;236;62440;-67
2023/08/05 03:55:10;;;;;;;;;;;;;;;25.38;67.57;96200.01;600319;236;66565;-67
2023/08/05 03:57:38;;;;;;;;;;;;;;;25.37;67.28;96193.03;600311;236;64318;-67
2023/08/05 04:00:09;;;;;;;;;;;;;;;25.37;67.91;96199.22;600347;236;65239;-67
2023/08/05 04:02:38;;;;;;;;;;;;;;;25.36;67.58;96192.25;599699;236;47247;-67
2023/08/05 04:05:06;;;;;;;;;;;;;;;25.36;68.16;96186.08;600305;236;67467;-67
2023/08/05 04:07:34;;;;;;;;;;;;;;;25.35;67.42;96190.67;598505;236;62764;-67
2023/08/05 04:10:02;;;;;;;;;;;;;;;25.36;68.65;96199.53;591409;240;64721;-67
2023/08/05 04:12:31;;;;;;;;;;;;;;;25.34;67.71;96194.45;591451;240;64507;-67
2023/08/05 04:14:59;;;;;;;;;;;;;;;25.33;67.24;96195.58;591441;240;64663;-67
2023/08/05 04:17:27;;;;;;;;;;;;;;;25.34;68.39;96194.45;591422;240;67477;-67
2023/08/05 04:19:54;;;;;;;;;;;;;;;25.34;68.67;96193.67;591386;240;67015;-67
2023/08/05 04:22:24;;;;;;;;;;;;;;;25.33;67.92;96198.27;591422;240;64563;-67
2023/08/05 04:24:51;;;;;;;;;;;;;;;25.33;68.09;96189.41;591360;240;66980;-67
2023/08/05 04:27:21;;;;;;;;;;;;;;;25.33;67.75;96197.48;591455;240;64752;-67
2023/08/05 04:29:48;;;;;;;;;;;;;;;25.32;68.31;96202.08;591394;240;62485;-67
2023/08/05 04:32:16;;;;;;;;;;;;;;;25.33;68.19;96214.41;591423;240;66930;-67
2023/08/05 04:34:45;;;;;;;;;;;;;;;25.32;67.88;96212.83;591158;240;64663;-67
2023/08/05 04:37:20;;;;;;;;;;;;;;;25.31;67.52;96208.55;586266;240;64826;-67
2023/08/05 04:39:48;;;;;;;;;;;;;;;25.32;68.14;96217.40;585380;237;66744;-66
2023/08/05 04:42:17;;;;;;;;;;;;;;;25.31;67.91;96205.86;585050;239;66847;-66
2023/08/05 04:44:45;;;;;;;;;;;;;;;25.31;67.98;96213.92;585008;242;64733;-66
2023/08/05 04:47:13;;;;;;;;;;;;;;;25.32;68.24;96210.14;585059;242;67423;-66
2023/08/05 04:49:42;;;;;;;;;;;;;;;25.31;67.10;96205.07;585028;242;66867;-66
2023/08/05 04:52:12;;;;;;;;;;;;;;;25.29;67.04;96200.03;585046;242;64761;-66
2023/08/05 04:54:40;;;;;;;;;;;;;;;25.31;67.94;96203.16;585080;240;66902;-67
2023/08/05 04:57:08;;;;;;;;;;;;;;;25.30;68.09;96204.28;585028;242;66831;-67
2023/08/05 04:59:35;;;;;;;;;;;;;;;25.30;67.59;96198.91;585051;242;64742;-67
2023/08/05 05:02:03;;;;;;;;;;;;;;;25.29;67.19;96202.72;585038;242;66920;-67
2023/08/05 05:04:31;;;;;;;;;;;;;;;25.30;67.77;96201.59;585024;242;67025;-67
2023/08/05 05:06:59;;;;;;;;;;;;;;;25.30;67.80;96190.84;585061;240;64740;-66
2023/08/05 05:09:27;;;;;;;;;;;;;;;25.31;67.21;96202.38;594568;238;66904;-67
2023/08/05 05:11:55;;;;;;;;;;;;;;;25.31;67.57;96202.38;594874;236;64671;-67
2023/08/05 05:14:22;;;;;;;;;;;;;;;25.29;67.93;96208.09;594875;238;64846;-67
2023/08/05 05:16:50;;;;;;;;;;;;;;;25.30;67.20;96203.50;594854;236;66888;-67
2023/08/05 05:19:17;;;;;;;;;;;;;;;25.29;66.24;96202.72;594867;238;66814;-66
2023/08/05 05:21:45;;;;;;;;;;;;;;;25.29;66.03;96205.41;594887;238;64718;-67
2023/08/05 05:24:12;;;;;;;;;;;;;;;25.30;67.00;96208.88;594887;238;66986;-67
2023/08/05 05:26:40;;;;;;;;;;;;;;;25.30;67.40;96206.19;594910;238;66586;-67
2023/08/05 05:29:07;;;;;;;;;;;;;;;25.30;67.65;96209.66;594872;238;62619;-67
2023/08/05 05:31:35;;;;;;;;;;;;;;;25.31;67.56;96210.45;594929;238;66821;-67
2023/08/05 05:34:02;;;;;;;;;;;;;;;25.31;67.00;96210.45;594842;238;67079;-66
2023/08/05 05:36:29;;;;;;;;;;;;;;;25.29;66.31;96210.78;594904;238;64753;-67
2023/08/05 05:38:57;;;;;;;;;;;;;;;25.30;65.93;96206.19;594865;238;66967;-67
2023/08/05 05:41:24;;;;;;;;;;;;;;;25.30;64.90;96208.88;594909;238;64274;-67
2023/08/05 05:43:52;;;;;;;;;;;;;;;25.30;64.34;96215.05;594921;238;64720;-67
2023/08/05 05:46:20;;;;;;;;;;;;;;;25.30;63.69;96212.35;594920;238;64720;-67
2023/08/05 05:48:47;;;;;;;;;;;;;;;25.31;63.17;96207.76;594903;236;64643;-67
2023/08/05 05:51:15;;;;;;;;;;;;;;;25.30;63.21;96204.28;594913;238;62671;-67
2023/08/05 05:53:42;;;;;;;;;;;;;;;25.32;63.01;96207.45;594883;238;64576;-67
2023/08/05 05:56:10;;;;;;;;;;;;;;;25.33;62.96;96208.23;594896;238;66641;-67
2023/08/05 05:58:37;;;;;;;;;;;;;;;25.33;62.95;96203.64;594853;238;64773;-67
2023/08/05 06:01:05;;;;;;;;;;;;;;;25.33;63.01;96203.64;594872;238;67199;-67
2023/08/05 06:03:34;;;;;;;;;;;;;;;25.34;63.01;96199.05;594902;238;66854;-67
2023/08/05 06:06:02;;;;;;;;;;;;;;;25.35;63.14;96208.72;594877;238;62597;-66
2023/08/05 06:08:30;;;;;;;;;;;;;;;25.35;63.16;96200.66;589087;238;66945;-67
2023/08/05 06:10:59;;;;;;;;;;;;;;;25.36;64.77;96197.63;585086;242;66931;-66
2023/08/05 06:13:26;;;;;;;;;;;;;;;25.35;64.57;96195.27;585045;242;64772;-67
2023/08/05 06:15:54;;;;;;;;;;;;;;;25.35;64.85;96190.67;585088;242;66750;-67
2023/08/05 06:18:22;;;;;;;;;;;;;;;25.36;65.03;96196.84;585023;240;66576;-67
2023/08/05 06:20:50;;;;;;;;;;;;;;;25.35;64.13;96181.83;585077;242;62496;-67
2023/08/05 06:23:17;;;;;;;;;;;;;;;25.35;63.63;96179.92;585084;242;64383;-67
2023/08/05 06:25:45;;;;;;;;;;;;;;;25.37;63.18;96184.96;585068;240;64331;-67
2023/08/05 06:28:13;;;;;;;;;;;;;;;25.38;62.93;96173.11;585083;242;64860;-67
2023/08/05 06:30:44;;;;;;;;;;;;;;;25.39;62.67;96163.92;585062;242;66710;-67
2023/08/05 06:33:12;;;;;;;;;;;;;;;25.39;62.76;96164.70;585088;242;64225;-67
2023/08/05 06:35:40;;;;;;;;;;;;;;;25.40;62.79;96160.92;585131;242;62648;-67
2023/08/05 06:38:08;;;;;;;;;;;;;;;25.41;62.51;96161.71;585074;242;64578;-69
2023/08/05 06:40:35;;;;;;;;;;;;;;;25.43;62.60;96165.66;585016;242;64341;-69
2023/08/05 06:43:03;;;;;;;;;;;;;;;25.43;62.41;96160.28;585041;242;62423;-69
2023/08/05 06:45:31;;;;;;;;;;;;;;;25.44;62.32;96153.78;585046;240;66803;-69
2023/08/05 06:47:58;;;;;;;;;;;;;;;25.46;62.45;96150.78;585087;242;64824;-69
2023/08/05 06:50:26;;;;;;;;;;;;;;;25.45;62.50;96150.00;585047;242;62778;-70
2023/08/05 06:52:53;;;;;;;;;;;;;;;25.45;62.73;96151.87;584983;240;64780;-69
2023/08/05 06:55:21;;;;;;;;;;;;;;;25.46;62.46;96162.33;585064;242;66913;-69
2023/08/05 06:57:48;;;;;;;;;;;;;;;25.47;62.30;96161.20;585039;242;64764;-69
2023/08/05 07:00:21;;;;;;;;;;;;;;;25.48;61.87;96156.61;585118;242;64690;-69
2023/08/05 07:02:45;;;;;;;;;;;;;;;25.49;61.72;96162.80;584953;242;64728;-68
2023/08/05 07:05:13;;;;;;;;;;;;;;;25.49;61.80;96158.21;585059;242;64504;-68
2023/08/05 07:07:41;;;;;;;;;;;;;;;25.49;61.64;96149.36;585001;240;66686;-68
2023/08/05 07:10:11;;;;;;;;;;;;;;;25.49;61.04;96152.83;585043;242;64634;-68
2023/08/05 07:12:38;;;;;;;;;;;;;;;25.50;60.96;96149.02;585020;240;66176;-68
2023/08/05 07:15:06;;;;;;;;;;;;;;;25.51;60.99;96144.42;585115;242;64900;-69
2023/08/05 07:17:33;;;;;;;;;;;;;;;25.51;60.59;96144.42;585037;242;66871;-69
2023/08/05 07:20:01;;;;;;;;;;;;;;;25.51;60.44;96149.80;585049;242;64748;-68
2023/08/05 07:22:28;;;;;;;;;;;;;;;25.51;60.57;96145.23;585040;240;66921;-68
2023/08/05 07:24:56;;;;;;;;;;;;;;;25.51;60.08;96144.42;585015;242;66787;-68
2023/08/05 07:27:23;;;;;;;;;;;;;;;25.51;59.94;96134.48;585091;242;64801;-68
2023/08/05 07:29:50;;;;;;;;;;;;;;;25.51;59.51;96134.48;585083;242;66916;-68
2023/08/05 07:32:18;;;;;;;;;;;;;;;25.52;59.98;96129.87;584999;242;66699;-68
2023/08/05 07:34:47;;;;;;;;;;;;;;;25.53;59.99;96132.23;585057;242;62729;-68
2023/08/05 07:37:16;;;;;;;;;;;;;;;25.52;59.84;96136.05;585008;242;64536;-68
2023/08/05 07:39:47;;;;;;;;;;;;;;;25.53;59.18;96131.45;585111;242;66809;-68
2023/08/05 07:42:15;;;;;;;;;;;;;;;25.54;59.64;96138.42;585002;242;64858;-68
2023/08/05 07:44:42;;;;;;;;;;;;;;;25.55;59.95;96143.47;585015;242;66765;-68
2023/08/05 07:47:10;;;;;;;;;;;;;;;25.53;59.62;96139.52;585043;242;66814;-68
2023/08/05 07:49:37;;;;;;;;;;;;;;;25.55;59.43;96134.61;585059;240;63687;-68
2023/08/05 07:52:08;;;;;;;;;;;;;;;25.54;59.32;96136.52;585077;242;66833;-68
2023/08/05 07:54:35;;;;;;;;;;;;;;;25.54;59.03;96139.20;585130;242;64493;-68
2023/08/05 07:57:03;;;;;;;;;;;;;;;25.55;58.89;96137.30;585042;242;63466;-68
2023/08/05 07:59:31;;;;;;;;;;;;;;;25.56;58.74;96136.97;585028;240;65493;-71
2023/08/05 08:01:59;;;;;;;;;;;;;;;25.57;58.59;96137.78;585003;242;64729;-71
2023/08/05 08:04:27;;;;;;;;;;;;;;;25.57;58.41;96141.25;585038;242;64607;-71
2023/08/05 08:06:55;;;;;;;;;;;;;;;25.56;58.34;96138.88;585088;242;64707;-66
2023/08/05 08:09:22;;;;;;;;;;;;;;;25.57;58.37;96137.78;594283;238;66856;-66
2023/08/05 08:11:49;;;;;;;;;;;;;;;25.57;58.44;96137.78;594830;238;64661;-66
2023/08/05 08:14:17;;;;;;;;;;;;;;;25.58;58.37;96136.66;594859;238;67755;-66
2023/08/05 08:16:44;;;;;;;;;;;;;;;25.58;58.41;96145.52;594884;238;66787;-66
2023/08/05 08:19:13;;;;;;;;;;;;;;;25.58;58.33;96133.97;594932;238;64706;-67
2023/08/05 08:21:40;;;;;;;;;;;;;;;25.57;58.29;96141.25;594874;238;64488;-67
2023/08/05 08:24:08;;;;;;;;;;;;;;;25.59;58.15;96127.47;594854;238;64822;-68
2023/08/05 08:26:35;;;;;;;;;;;;;;;25.59;58.19;96124.77;594813;238;62457;-68
2023/08/05 08:29:03;;;;;;;;;;;;;;;25.59;58.05;96124.77;594873;238;64899;-74
2023/08/05 08:31:31;;;;;;;;;;;;;;;25.60;58.02;96126.38;594923;238;66852;-73
2023/08/05 08:33:59;;;;;;;;;;;;;;;25.62;57.99;96134.92;594878;236;64717;-67
2023/08/05 08:36:26;;;;;;;;;;;;;;;25.63;57.93;96133.80;594866;238;66880;-73
2023/08/05 08:38:54;;;;;;;;;;;;;;;25.61;57.93;96131.41;594869;236;66711;-70
2023/08/05 08:41:21;;;;;;;;;;;;;;;25.63;57.87;96128.41;594871;238;64781;-73
2023/08/05 08:43:50;;;;;;;;;;;;;;;25.62;57.86;96133.02;594908;238;66773;-62
2023/08/05 08:46:19;;;;;;;;;;;;;;;25.62;57.89;96132.23;594865;238;66852;-62
2023/08/05 08:48:54;;;;;;;;;;;;;;;25.62;57.81;96133.02;594863;238;64744;-62
2023/08/05 08:51:18;;;;;;;;;;;;;;;25.63;57.79;96131.89;594613;238;64843;-62
2023/08/05 08:53:48;;;;;;;;;;;;;;;25.63;57.65;96128.41;594841;238;68042;-63
2023/08/05 08:56:15;;;;;;;;;;;;;;;25.63;57.56;96120.34;594874;238;64787;-63
2023/08/05 08:58:43;;;;;;;;;;;;;;;25.63;57.59;96114.96;594956;238;67050;-64
2023/08/05 09:01:12;;;;;;;;;;;;;;;25.63;57.53;96110.36;594899;238;64704;-63
2023/08/05 09:03:41;;;;;;;;;;;;;;;25.63;57.48;96104.98;594884;238;64755;-64
2023/08/05 09:06:09;;;;;;;;;;;;;;;25.64;57.26;96106.55;594871;238;64679;-64
2023/08/05 09:08:36;;;;;;;;;;;;;;;25.64;57.16;96097.70;594888;238;64357;-63
2023/08/05 09:11:04;;;;;;;;;;;;;;;25.64;57.17;96089.63;594954;238;62635;-67
2023/08/05 09:13:31;;;;;;;;;;;;;;;25.65;57.12;96091.22;594888;238;66946;-72
2023/08/05 09:15:59;;;;;;;;;;;;;;;25.67;57.00;96094.35;594869;238;66916;-72
2023/08/05 09:18:26;;;;;;;;;;;;;;;25.68;56.94;96093.26;594869;238;64405;-72
2023/08/05 09:20:55;;;;;;;;;;;;;;;25.68;56.91;96096.73;594874;236;66750;-72
2023/08/05 09:23:23;;;;;;;;;;;;;;;25.67;56.90;96088.97;594792;238;66932;-72
2023/08/05 09:25:50;;;;;;;;;;;;;;;25.67;56.91;96091.66;594887;238;62415;-72
2023/08/05 09:28:31;;;;;;;;;;;;;;;25.66;56.94;96082.02;594886;238;65449;-72
2023/08/05 09:31:18;;;;;;;;;;;;;;;25.65;56.98;96077.77;594822;236;66819;-71
2023/08/05 09:33:45;;;;;;;;;;;;;;;25.65;57.00;96080.45;594922;238;64602;-73
2023/08/05 09:36:22;;;;;;;;;;;;;;;25.65;57.00;96081.24;594899;236;66433;-73
2023/08/05 09:38:46;;;;;;;;;;;;;;;25.65;56.86;96086.62;594639;238;66813;-73
2023/08/05 09:41:14;;;;;;;;;;;;;;;25.66;56.85;96082.02;594919;238;64749;-73
2023/08/05 09:43:45;;;;;;;;;;;;;;;25.67;56.72;96072.83;594870;238;67083;-68
2023/08/05 09:46:11;;;;;;;;;;;;;;;25.67;56.56;96076.33;594773;238;66862;-68
2023/08/05 09:48:43;;;;;;;;;;;;;;;25.66;56.59;96079.33;594887;238;62723;-68
2023/08/05 09:51:16;;;;;;;;;;;;;;;25.67;56.54;96078.20;594843;238;64684;-65
2023/08/05 09:53:46;;;;;;;;;;;;;;;25.66;56.68;96076.64;594937;238;65619;-64
2023/08/05 09:56:18;;;;;;;;;;;;;;;25.67;56.65;96072.83;594868;238;64839;-65
2023/08/05 09:58:43;;;;;;;;;;;;;;;25.67;56.66;96067.45;594764;238;66820;-64
2023/08/05 10:01:12;;;;;;;;;;;;;;;25.68;56.62;96066.35;594884;238;66740;-64
2023/08/05 10:03:40;;;;;;;;;;;;;;;25.68;56.64;96071.73;594881;238;64684;-64
2023/08/05 10:06:08;;;;;;;;;;;;;;;25.69;56.37;96070.61;594902;238;66977;-64
2023/08/05 10:08:36;;;;;;;;;;;;;;;25.70;56.15;96064.13;588766;238;66851;-64
2023/08/05 10:11:04;;;;;;;;;;;;;;;25.70;56.09;96056.06;585054;242;64739;-64
2023/08/05 10:13:33;;;;;;;;;;;;;;;25.70;56.04;96061.44;585071;242;66893;-68
2023/08/05 10:16:01;;;;;;;;;;;;;;;25.71;56.14;96068.39;584997;240;66807;-73
2023/08/05 10:18:29;;;;;;;;;;;;;;;25.71;56.16;96059.53;585064;242;64764;-72
2023/08/05 10:20:56;;;;;;;;;;;;;;;25.72;56.00;96061.10;585118;242;66950;-72
2023/08/05 10:23:27;;;;;;;;;;;;;;;25.72;55.94;96053.03;585048;242;66187;-73
2023/08/05 10:25:56;;;;;;;;;;;;;;;25.72;56.05;96050.34;585069;242;64647;-72
2023/08/05 10:28:25;;;;;;;;;;;;;;;25.71;56.02;96046.86;584273;242;66632;-72
2023/08/05 10:30:54;;;;;;;;;;;;;;;25.71;56.01;96041.48;585064;242;66699;-72
2023/08/05 10:33:22;;;;;;;;;;;;;;;25.72;55.98;96034.19;585100;242;64682;-72
2023/08/05 10:35:49;;;;;;;;;;;;;;;25.71;55.98;96035.31;585061;240;64682;-72
2023/08/05 10:38:21;;;;;;;;;;;;;;;25.71;55.98;96040.70;585060;242;64344;-72
2023/08/05 10:40:55;;;;;;;;;;;;;;;25.72;55.93;96036.88;585097;242;62477;-72
2023/08/05 10:43:32;;;;;;;;;;;;;;;25.71;55.88;96041.48;585070;240;64322;-73
2023/08/05 10:46:08;;;;;;;;;;;;;;;25.71;55.87;96035.31;585001;242;66817;-73
2023/08/05 10:48:45;;;;;;;;;;;;;;;25.71;55.94;96030.72;585131;240;62464;-69
2023/08/05 10:51:14;;;;;;;;;;;;;;;25.71;56.10;96025.34;585045;242;64472;-69
2023/08/05 10:53:45;;;;;;;;;;;;;;;25.72;55.94;96023.42;585048;242;64692;-69
2023/08/05 10:56:13;;;;;;;;;;;;;;;25.73;55.79;96011.54;585037;242;64858;-74
2023/08/05 10:58:42;;;;;;;;;;;;;;;25.72;55.58;96016.14;585004;242;67296;-67
2023/08/05 11:01:10;;;;;;;;;;;;;;;25.72;55.57;96010.75;584974;242;66744;-71
2023/08/05 11:03:49;;;;;;;;;;;;;;;25.73;55.57;96011.54;585073;242;64846;-67
2023/08/05 11:06:18;;;;;;;;;;;;;;;25.72;55.52;96004.59;585060;242;66746;-70
2023/08/05 11:08:46;;;;;;;;;;;;;;;25.72;55.55;96008.06;591100;238;66811;-70
2023/08/05 11:11:14;;;;;;;;;;;;;;;25.72;55.49;96010.75;594853;236;64945;-70
2023/08/05 11:13:45;;;;;;;;;;;;;;;25.71;55.67;96009.19;594896;238;66908;-70
2023/08/05 11:16:13;;;;;;;;;;;;;;;25.73;55.57;96000.78;594919;238;66888;-70
2023/08/05 11:18:42;;;;;;;;;;;;;;;25.73;55.58;95998.08;594911;238;62660;-70
2023/08/05 11:21:17;;;;;;;;;;;;;;;25.72;55.52;95983.84;594872;238;66976;-70
2023/08/05 11:23:45;;;;;;;;;;;;;;;25.73;55.44;95985.44;594850;238;66834;-68
2023/08/05 11:26:13;;;;;;;;;;;;;;;25.74;55.38;95978.94;594837;238;64619;-68
2023/08/05 11:28:45;;;;;;;;;;;;;;;25.75;55.40;95977.03;594877;238;64745;-68
2023/08/05 11:31:26;;;;;;;;;;;;;;;25.74;55.25;95978.94;594919;238;66839;-68
2023/08/05 11:33:54;;;;;;;;;;;;;;;25.76;55.10;95976.71;594886;236;66721;-68
2023/08/05 11:36:25;;;;;;;;;;;;;;;25.75;55.00;95961.66;594856;238;66921;-68
2023/08/05 11:38:57;;;;;;;;;;;;;;;25.76;54.88;95968.64;594867;238;66775;-68
2023/08/05 11:41:22;;;;;;;;;;;;;;;25.76;54.78;95965.16;594761;238;65721;-69
2023/08/05 11:43:50;;;;;;;;;;;;;;;25.76;54.90;95965.95;594845;238;67276;-78
2023/08/05 11:46:25;;;;;;;;;;;;;;;25.75;54.76;95961.66;594876;238;67169;-78
2023/08/05 11:49:08;;;;;;;;;;;;;;;25.75;54.75;95961.66;594830;238;62894;-72
2023/08/05 11:51:49;;;;;;;;;;;;;;;25.77;54.67;95953.27;594859;238;67194;-73
2023/08/05 11:54:26;;;;;;;;;;;;;;;25.76;54.56;95947.11;594852;238;67188;-73
2023/08/05 11:56:53;;;;;;;;;;;;;;;25.77;54.43;95947.89;594796;238;62446;-73
2023/08/05 11:59:39;;;;;;;;;;;;;;;25.76;54.32;95947.11;594858;236;64878;-73
2023/08/05 12:02:09;;;;;;;;;;;;;;;25.76;54.11;95949.80;594860;236;66859;-73
2023/08/05 12:04:49;;;;;;;;;;;;;;;25.76;53.98;95943.64;594907;238;64884;-73
2023/08/05 12:07:21;;;;;;;;;;;;;;;25.77;53.92;95955.97;594777;236;67040;-73
2023/08/05 12:10:02;;;;;;;;;;;;;;;25.77;53.74;95940.60;594867;236;66869;-73
2023/08/05 12:12:30;;;;;;;;;;;;;;;25.77;53.65;95942.52;585153;238;62484;-73
2023/08/05 12:15:13;;;;;;;;;;;;;;;25.78;53.65;95941.39;594863;238;65087;-73
2023/08/05 12:17:41;;;;;;;;;;;;;;;25.77;53.49;95940.60;594851;238;66892;-73
2023/08/05 12:20:14;;;;;;;;;;;;;;;25.78;53.46;95931.43;594805;238;64647;-73
2023/08/05 12:22:39;;;;;;;;;;;;;;;25.78;53.25;95931.43;594565;238;67315;-73
2023/08/05 12:25:06;;;;;;;;;;;;;;;25.78;53.21;95928.74;594844;237;66684;-72
2023/08/05 12:27:34;;;;;;;;;;;;;;;25.78;53.20;95934.12;594848;238;64671;-72
2023/08/05 12:30:01;;;;;;;;;;;;;;;25.79;53.07;95926.83;594842;238;67140;-72
2023/08/05 12:32:29;;;;;;;;;;;;;;;25.79;52.93;95927.61;594814;238;66855;-72
2023/08/05 12:34:56;;;;;;;;;;;;;;;25.80;52.80;95931.87;594909;238;62570;-73
2023/08/05 12:37:24;;;;;;;;;;;;;;;25.80;52.71;95921.11;594811;238;67047;-72
2023/08/05 12:39:51;;;;;;;;;;;;;;;25.81;52.53;95914.63;594761;238;66911;-72
2023/08/05 12:42:19;;;;;;;;;;;;;;;25.82;52.46;95912.72;594862;238;64686;-72
2023/08/05 12:44:46;;;;;;;;;;;;;;;25.81;52.51;95906.55;594843;238;67056;-73
2023/08/05 12:47:13;;;;;;;;;;;;;;;25.81;52.54;95901.17;594816;238;67166;-72
2023/08/05 12:49:42;;;;;;;;;;;;;;;25.81;52.52;95906.55;594857;238;62433;-73
2023/08/05 12:52:10;;;;;;;;;;;;;;;25.81;52.52;95895.79;594834;238;67154;-73
2023/08/05 12:54:37;;;;;;;;;;;;;;;25.83;52.38;95887.36;594885;238;66744;-72